Time;durP1;ratioP1;P1;durP2;ratioP2;P2;SDS_P1;SDS_P2;PMS_P1;PMS_P2;Temp;Humidity;BMP_temperature;BMP_pressure;BME280_temperature;BME280_humidity;BME280_pressure;Samples;Min_cycle;Max_cycle;Signal;HPM_P1;HPM_P2
2021/06/10 00:00:35;;;;;;;2.78;1.58;;;;;;;;;;5098687;28;20035;-36
2021/06/10 00:03:00;;;;;;;3.35;2.35;;;;;;;;;;5100617;28;20016;-36
2021/06/10 00:05:25;;;;;;;2.85;2.13;;;;;;;;;;5101732;28;20525;-35
2021/06/10 00:07:52;;;;;;;3.40;1.90;;;;;;;;;;5110471;28;20038;-35
2021/06/10 00:10:18;;;;;;;2.65;2.03;;;;;;;;;;5104353;28;20031;-35
2021/06/10 00:12:44;;;;;;;2.35;1.90;;;;;;;;;;5098698;28;20020;-36
2021/06/10 00:15:11;;;;;;;6.22;2.38;;;;;;;;;;5095634;28;20084;-35
2021/06/10 00:17:36;;;;;;;2.63;2.25;;;;;;;;;;5097534;28;20068;-36
2021/06/10 00:20:03;;;;;;;2.83;2.20;;;;;;;;;;5092100;28;20020;-36
2021/06/10 00:22:28;;;;;;;2.58;2.08;;;;;;;;;;5094921;27;20134;-35
2021/06/10 00:24:53;;;;;;;4.13;2.65;;;;;;;;;;5105238;27;20133;-35
2021/06/10 00:27:21;;;;;;;5.45;3.78;;;;;;;;;;5104632;27;20023;-35
2021/06/10 00:29:47;;;;;;;4.70;3.17;;;;;;;;;;5102751;27;20024;-36
2021/06/10 00:32:13;;;;;;;5.82;3.45;;;;;;;;;;5100413;27;20360;-35
2021/06/10 00:34:39;;;;;;;8.30;3.35;;;;;;;;;;5106890;27;20031;-35
2021/06/10 00:37:04;;;;;;;5.68;3.80;;;;;;;;;;5107753;27;20552;-36
2021/06/10 00:39:30;;;;;;;4.85;4.35;;;;;;;;;;5099374;27;20038;-36
2021/06/10 00:41:55;;;;;;;4.78;3.00;;;;;;;;;;5098613;27;20031;-36
2021/06/10 00:44:20;;;;;;;5.18;4.20;;;;;;;;;;5100824;27;20020;-36
2021/06/10 00:46:46;;;;;;;7.05;4.15;;;;;;;;;;5104523;27;20457;-36
2021/06/10 00:49:11;;;;;;;7.13;4.00;;;;;;;;;;5100508;27;20048;-35
2021/06/10 00:51:37;;;;;;;10.43;3.60;;;;;;;;;;5101756;27;20545;-36
2021/06/10 00:54:03;;;;;;;4.18;3.35;;;;;;;;;;5104296;27;20028;-36
2021/06/10 00:56:28;;;;;;;5.05;4.18;;;;;;;;;;5106222;27;20624;-36
2021/06/10 00:58:54;;;;;;;5.13;4.63;;;;;;;;;;5103692;27;20752;-36
2021/06/10 01:01:20;;;;;;;6.05;3.22;;;;;;;;;;5100899;27;20066;-36
2021/06/10 01:03:45;;;;;;;3.25;2.95;;;;;;;;;;5099659;27;20090;-36
2021/06/10 01:06:19;;;;;;;4.57;3.40;;;;;;;;;;5102781;27;20085;-36
2021/06/10 01:08:47;;;;;;;2.95;2.53;;;;;;;;;;5106912;27;20023;-36
2021/06/10 01:11:15;;;;;;;3.33;2.67;;;;;;;;;;5101934;27;20028;-36
2021/06/10 01:13:49;;;;;;;3.03;2.72;;;;;;;;;;5101927;27;20028;-36
2021/06/10 01:16:17;;;;;;;2.78;2.30;;;;;;;;;;5099527;27;20098;-36
2021/06/10 01:18:43;;;;;;;4.25;3.20;;;;;;;;;;5108050;27;20054;-40
2021/06/10 01:21:08;;;;;;;2.83;1.92;;;;;;;;;;5106438;27;20246;-35
2021/06/10 01:23:36;;;;;;;5.60;2.65;;;;;;;;;;5101113;27;20023;-36
2021/06/10 01:26:14;;;;;;;3.53;2.08;;;;;;;;;;5102905;27;20076;-36
2021/06/10 01:28:40;;;;;;;3.28;2.17;;;;;;;;;;5100795;27;20031;-36
2021/06/10 01:31:09;;;;;;;5.50;2.25;;;;;;;;;;5105172;27;20020;-36
2021/06/10 01:33:39;;;;;;;7.93;2.10;;;;;;;;;;5098471;27;20028;-35
2021/06/10 01:36:04;;;;;;;10.30;3.05;;;;;;;;;;5096395;27;20157;-36
2021/06/10 01:38:31;;;;;;;2.72;2.00;;;;;;;;;;5100053;27;20095;-36
2021/06/10 01:40:58;;;;;;;3.08;2.47;;;;;;;;;;5095640;27;20032;-36
2021/06/10 01:43:25;;;;;;;3.97;2.80;;;;;;;;;;5100380;27;20028;-36
2021/06/10 01:45:50;;;;;;;5.53;3.22;;;;;;;;;;5102866;27;20526;-35
2021/06/10 01:48:19;;;;;;;6.93;4.07;;;;;;;;;;5099703;27;20037;-35
2021/06/10 01:50:48;;;;;;;2.72;1.88;;;;;;;;;;5103296;27;20020;-36
2021/06/10 01:53:14;;;;;;;4.97;2.63;;;;;;;;;;5096798;27;20024;-36
2021/06/10 01:55:40;;;;;;;2.17;1.60;;;;;;;;;;5103418;27;20098;-36
2021/06/10 01:58:07;;;;;;;2.58;2.10;;;;;;;;;;5113231;27;20034;-36
2021/06/10 02:00:33;;;;;;;2.28;1.67;;;;;;;;;;5107595;27;20418;-36
2021/06/10 02:02:58;;;;;;;3.90;2.47;;;;;;;;;;5104004;27;20031;-36
2021/06/10 02:05:24;;;;;;;4.78;2.15;;;;;;;;;;5104334;27;20051;-36
2021/06/10 02:07:50;;;;;;;4.07;2.38;;;;;;;;;;5107412;27;20052;-36
2021/06/10 02:10:18;;;;;;;10.90;2.67;;;;;;;;;;5098752;27;20032;-35
2021/06/10 02:12:44;;;;;;;5.35;1.90;;;;;;;;;;5100908;27;20020;-35
2021/06/10 02:15:11;;;;;;;3.63;2.55;;;;;;;;;;5105296;27;20173;-35
2021/06/10 02:17:37;;;;;;;6.05;3.10;;;;;;;;;;5106025;27;20019;-35
2021/06/10 02:20:03;;;;;;;9.40;3.72;;;;;;;;;;5108921;27;20088;-36
2021/06/10 02:22:29;;;;;;;5.18;3.70;;;;;;;;;;5105097;27;20035;-35
2021/06/10 02:24:54;;;;;;;13.07;4.32;;;;;;;;;;5103211;27;20027;-36
2021/06/10 02:27:19;;;;;;;5.35;3.92;;;;;;;;;;5100455;27;20470;-36
2021/06/10 02:29:44;;;;;;;7.47;3.28;;;;;;;;;;5101288;27;20110;-35
2021/06/10 02:32:11;;;;;;;5.43;2.60;;;;;;;;;;5102079;27;20514;-35
2021/06/10 02:34:36;;;;;;;3.25;2.47;;;;;;;;;;5108216;27;20023;-35
2021/06/10 02:37:02;;;;;;;3.80;2.20;;;;;;;;;;5101611;27;20344;-35
2021/06/10 02:39:27;;;;;;;4.97;3.38;;;;;;;;;;5102670;27;20024;-36
2021/06/10 02:41:53;;;;;;;7.30;3.13;;;;;;;;;;5100403;27;20016;-35
2021/06/10 02:44:19;;;;;;;4.78;3.00;;;;;;;;;;5103062;27;20030;-36
2021/06/10 02:46:45;;;;;;;2.97;2.13;;;;;;;;;;5099122;27;20027;-36
2021/06/10 02:49:12;;;;;;;3.15;2.15;;;;;;;;;;5100935;27;20024;-36
2021/06/10 02:51:38;;;;;;;4.68;2.72;;;;;;;;;;5100981;27;20094;-35
2021/06/10 02:54:05;;;;;;;7.63;2.72;;;;;;;;;;5101619;27;20538;-36
2021/06/10 02:56:31;;;;;;;7.28;3.47;;;;;;;;;;5100973;27;20080;-36
2021/06/10 02:59:00;;;;;;;3.28;2.00;;;;;;;;;;5103816;27;20027;-36
2021/06/10 03:01:25;;;;;;;6.82;3.08;;;;;;;;;;5100634;27;20028;-36
2021/06/10 03:03:51;;;;;;;6.85;3.83;;;;;;;;;;5104366;27;20136;-36
2021/06/10 03:06:16;;;;;;;4.18;2.65;;;;;;;;;;5112538;27;20040;-36
2021/06/10 03:08:42;;;;;;;6.22;3.10;;;;;;;;;;5107395;27;20030;-36
2021/06/10 03:11:08;;;;;;;2.38;1.98;;;;;;;;;;5104458;27;20651;-36
2021/06/10 03:13:34;;;;;;;5.68;3.08;;;;;;;;;;5104500;27;20022;-35
2021/06/10 03:16:00;;;;;;;5.68;4.00;;;;;;;;;;5099670;27;20031;-36
2021/06/10 03:18:26;;;;;;;6.97;3.33;;;;;;;;;;5099054;27;20024;-35
2021/06/10 03:20:52;;;;;;;4.00;2.75;;;;;;;;;;5099752;27;20065;-36
2021/06/10 03:23:17;;;;;;;4.75;3.33;;;;;;;;;;5100338;27;20085;-36
2021/06/10 03:25:43;;;;;;;4.95;2.35;;;;;;;;;;5099622;27;20653;-36
2021/06/10 03:28:09;;;;;;;3.17;1.98;;;;;;;;;;5099503;27;20479;-36
2021/06/10 03:30:35;;;;;;;3.33;2.42;;;;;;;;;;5101628;27;20498;-36
2021/06/10 03:33:02;;;;;;;4.55;2.05;;;;;;;;;;5100811;27;20020;-36
2021/06/10 03:35:27;;;;;;;2.35;2.15;;;;;;;;;;5102288;27;20011;-36
2021/06/10 03:37:53;;;;;;;6.75;2.45;;;;;;;;;;5102742;27;20544;-36
2021/06/10 03:40:18;;;;;;;4.13;2.70;;;;;;;;;;5097963;27;20530;-36
2021/06/10 03:42:43;;;;;;;3.55;2.25;;;;;;;;;;5101729;27;20549;-36
2021/06/10 03:45:09;;;;;;;4.88;2.72;;;;;;;;;;5107715;27;20031;-36
2021/06/10 03:47:35;;;;;;;4.97;2.92;;;;;;;;;;5105977;27;20024;-36
2021/06/10 03:50:01;;;;;;;3.65;2.78;;;;;;;;;;5098501;27;20027;-36
2021/06/10 03:52:27;;;;;;;10.90;4.32;;;;;;;;;;5101135;28;20384;-36
2021/06/10 03:54:52;;;;;;;6.60;4.57;;;;;;;;;;5103630;27;20031;-36
2021/06/10 03:57:18;;;;;;;5.47;3.50;;;;;;;;;;5102119;27;20034;-35
2021/06/10 03:59:43;;;;;;;10.80;3.45;;;;;;;;;;5100064;27;20047;-36
2021/06/10 04:02:08;;;;;;;3.60;2.92;;;;;;;;;;5099268;28;20490;-35
2021/06/10 04:04:34;;;;;;;8.73;2.97;;;;;;;;;;5098296;28;20079;-36
2021/06/10 04:06:59;;;;;;;7.45;3.72;;;;;;;;;;5101532;28;20024;-35
2021/06/10 04:09:24;;;;;;;5.30;3.90;;;;;;;;;;5101796;28;20391;-36
2021/06/10 04:11:50;;;;;;;3.63;2.85;;;;;;;;;;5102736;28;20519;-36
2021/06/10 04:14:15;;;;;;;7.03;3.58;;;;;;;;;;5105603;28;20042;-36
2021/06/10 04:16:40;;;;;;;6.78;3.17;;;;;;;;;;5106382;28;20101;-35
2021/06/10 04:19:06;;;;;;;4.78;2.80;;;;;;;;;;5103126;28;20012;-35
2021/06/10 04:21:31;;;;;;;7.07;3.17;;;;;;;;;;5098949;28;20047;-35
2021/06/10 04:23:56;;;;;;;4.53;3.75;;;;;;;;;;5099207;28;20027;-35
2021/06/10 04:26:22;;;;;;;7.70;3.55;;;;;;;;;;5095219;28;20444;-36
2021/06/10 04:28:47;;;;;;;4.90;3.88;;;;;;;;;;5104582;28;20043;-36
2021/06/10 04:31:16;;;;;;;5.68;3.60;;;;;;;;;;5102334;28;20541;-36
2021/06/10 04:33:42;;;;;;;7.63;3.90;;;;;;;;;;5103521;28;20013;-35
2021/06/10 04:36:09;;;;;;;3.00;2.70;;;;;;;;;;5099292;28;20023;-36
2021/06/10 04:38:35;;;;;;;3.63;2.80;;;;;;;;;;5096521;28;20095;-36
2021/06/10 04:41:00;;;;;;;3.92;3.42;;;;;;;;;;5100846;28;20119;-36
2021/06/10 04:43:25;;;;;;;9.35;3.53;;;;;;;;;;5100332;28;20030;-36
2021/06/10 04:45:51;;;;;;;4.82;3.85;;;;;;;;;;5100277;28;20030;-36
2021/06/10 04:48:16;;;;;;;7.68;4.45;;;;;;;;;;5098938;28;20754;-36
2021/06/10 04:50:41;;;;;;;10.00;6.80;;;;;;;;;;5101488;28;20016;-41
2021/06/10 04:53:07;;;;;;;13.25;4.40;;;;;;;;;;5099098;28;20020;-36
2021/06/10 04:55:33;;;;;;;3.83;3.03;;;;;;;;;;5103826;28;20035;-36
2021/06/10 04:57:58;;;;;;;4.22;2.70;;;;;;;;;;5101688;28;20024;-36
2021/06/10 05:00:24;;;;;;;4.93;2.97;;;;;;;;;;5101318;28;20046;-36
2021/06/10 05:02:49;;;;;;;7.18;6.53;;;;;;;;;;5108917;28;20098;-36
2021/06/10 05:05:14;;;;;;;4.75;3.90;;;;;;;;;;5114032;27;20576;-36
2021/06/10 05:07:40;;;;;;;3.78;3.30;;;;;;;;;;5115761;27;20043;-36
2021/06/10 05:10:05;;;;;;;5.20;3.53;;;;;;;;;;5104686;27;20734;-36
2021/06/10 05:12:31;;;;;;;9.63;5.00;;;;;;;;;;5102578;27;20408;-36
2021/06/10 05:14:56;;;;;;;5.47;3.72;;;;;;;;;;5102364;27;20019;-36
2021/06/10 05:17:22;;;;;;;13.23;5.65;;;;;;;;;;5104338;27;20101;-35
2021/06/10 05:19:47;;;;;;;7.03;4.32;;;;;;;;;;5102309;27;20054;-36
2021/06/10 05:22:12;;;;;;;5.55;3.28;;;;;;;;;;5107663;27;20095;-36
2021/06/10 05:24:40;;;;;;;17.70;12.65;;;;;;;;;;5105640;27;20478;-35
2021/06/10 05:27:08;;;;;;;6.25;4.13;;;;;;;;;;5106902;27;20404;-35
2021/06/10 05:29:34;;;;;;;8.68;3.65;;;;;;;;;;5101224;27;20030;-36
2021/06/10 05:31:59;;;;;;;10.98;4.05;;;;;;;;;;5101872;27;20031;-36
2021/06/10 05:34:24;;;;;;;13.10;5.05;;;;;;;;;;5105610;27;20027;-35
2021/06/10 05:36:49;;;;;;;12.05;8.38;;;;;;;;;;5107844;27;20027;-35
2021/06/10 05:39:15;;;;;;;12.77;7.50;;;;;;;;;;5104310;27;20077;-35
2021/06/10 05:41:40;;;;;;;7.13;5.28;;;;;;;;;;5108614;27;20019;-35
2021/06/10 05:44:05;;;;;;;5.20;4.68;;;;;;;;;;5102845;27;20035;-35
2021/06/10 05:46:31;;;;;;;7.43;6.00;;;;;;;;;;5108109;27;20069;-35
2021/06/10 05:48:56;;;;;;;12.00;9.55;;;;;;;;;;5106560;27;20431;-35
2021/06/10 05:51:21;;;;;;;10.45;4.32;;;;;;;;;;5098103;27;20075;-35
2021/06/10 05:53:47;;;;;;;5.05;3.33;;;;;;;;;;5108210;27;20416;-35
2021/06/10 05:56:12;;;;;;;7.75;4.68;;;;;;;;;;5101978;27;20533;-36
2021/06/10 05:58:38;;;;;;;15.05;5.45;;;;;;;;;;5104653;27;20008;-35
2021/06/10 06:01:03;;;;;;;7.60;3.58;;;;;;;;;;5097456;28;20036;-35
2021/06/10 06:03:30;;;;;;;6.63;3.58;;;;;;;;;;5105415;27;20039;-35
2021/06/10 06:05:56;;;;;;;4.75;3.53;;;;;;;;;;5103960;27;20035;-35
2021/06/10 06:08:21;;;;;;;7.95;4.13;;;;;;;;;;5107621;27;20425;-36
2021/06/10 06:10:49;;;;;;;11.30;3.47;;;;;;;;;;5103188;27;20070;-35
2021/06/10 06:13:16;;;;;;;4.63;3.03;;;;;;;;;;5101614;27;20020;-35
2021/06/10 06:15:41;;;;;;;15.38;13.48;;;;;;;;;;5104022;27;20055;-35
2021/06/10 06:18:07;;;;;;;22.33;20.08;;;;;;;;;;5102441;27;20050;-36
2021/06/10 06:20:33;;;;;;;24.75;22.52;;;;;;;;;;5101829;27;20028;-35
2021/06/10 06:22:58;;;;;;;18.77;16.95;;;;;;;;;;5103792;27;20028;-35
2021/06/10 06:25:23;;;;;;;22.80;12.50;;;;;;;;;;5101673;28;20478;-35
2021/06/10 06:27:49;;;;;;;9.55;7.53;;;;;;;;;;5100937;27;20031;-35
2021/06/10 06:30:15;;;;;;;22.20;8.02;;;;;;;;;;5099751;27;20047;-46
2021/06/10 06:32:40;;;;;;;7.90;6.60;;;;;;;;;;5100110;27;20054;-45
2021/06/10 06:35:06;;;;;;;7.03;4.93;;;;;;;;;;5098697;27;20572;-46
2021/06/10 06:37:32;;;;;;;7.47;6.15;;;;;;;;;;5098454;27;20023;-49
2021/06/10 06:39:57;;;;;;;11.60;7.40;;;;;;;;;;5100477;27;20019;-48
2021/06/10 06:42:22;;;;;;;10.30;5.40;;;;;;;;;;5101011;27;20172;-50
2021/06/10 06:44:48;;;;;;;14.48;6.35;;;;;;;;;;5103131;27;20026;-45
2021/06/10 06:47:13;;;;;;;8.40;5.93;;;;;;;;;;5101284;27;20024;-46
2021/06/10 06:49:38;;;;;;;14.15;7.05;;;;;;;;;;5098603;27;20035;-44
2021/06/10 06:52:04;;;;;;;9.05;6.57;;;;;;;;;;5100848;27;20024;-46
2021/06/10 06:54:29;;;;;;;20.92;6.45;;;;;;;;;;5102756;27;20024;-48
2021/06/10 06:56:55;;;;;;;9.98;5.13;;;;;;;;;;5101735;27;20494;-49
2021/06/10 06:59:20;;;;;;;7.28;3.50;;;;;;;;;;5098606;27;20550;-46
2021/06/10 07:01:45;;;;;;;6.57;4.85;;;;;;;;;;5097058;27;20642;-46
2021/06/10 07:04:11;;;;;;;13.35;5.55;;;;;;;;;;5096695;27;20067;-45
2021/06/10 07:06:36;;;;;;;13.88;5.85;;;;;;;;;;5099886;27;20096;-48
2021/06/10 07:09:02;;;;;;;9.13;5.05;;;;;;;;;;5094539;27;20341;-44
2021/06/10 07:11:27;;;;;;;22.63;6.63;;;;;;;;;;5095854;27;20474;-51
2021/06/10 07:13:53;;;;;;;8.80;4.85;;;;;;;;;;5107897;27;20020;-48
2021/06/10 07:16:18;;;;;;;5.07;3.88;;;;;;;;;;5107273;27;20023;-49
2021/06/10 07:18:43;;;;;;;5.28;3.50;;;;;;;;;;5105821;27;20475;-47
2021/06/10 07:21:09;;;;;;;11.43;10.18;;;;;;;;;;5100049;27;20504;-46
2021/06/10 07:23:34;;;;;;;7.03;5.00;;;;;;;;;;5098095;27;20028;-48
2021/06/10 07:25:59;;;;;;;8.13;3.75;;;;;;;;;;5096423;27;20024;-51
2021/06/10 07:28:25;;;;;;;3.60;3.08;;;;;;;;;;5098413;28;20033;-51
2021/06/10 07:30:51;;;;;;;2.58;1.92;;;;;;;;;;5103570;27;20069;-48
2021/06/10 07:33:16;;;;;;;15.80;6.70;;;;;;;;;;5100535;28;20322;-54
2021/06/10 07:35:42;;;;;;;9.00;6.82;;;;;;;;;;5095962;28;20455;-49
2021/06/10 07:38:09;;;;;;;23.27;15.68;;;;;;;;;;5099169;27;20024;-50
2021/06/10 07:40:35;;;;;;;15.27;9.82;;;;;;;;;;5099138;27;20042;-46
2021/06/10 07:43:00;;;;;;;15.90;9.43;;;;;;;;;;5100197;27;20023;-44
2021/06/10 07:45:27;;;;;;;14.95;10.70;;;;;;;;;;5097155;27;20051;-47
2021/06/10 07:47:52;;;;;;;10.18;5.88;;;;;;;;;;5096039;27;20039;-46
2021/06/10 07:50:17;;;;;;;9.25;5.20;;;;;;;;;;5098594;28;20019;-44
2021/06/10 07:52:43;;;;;;;12.65;6.25;;;;;;;;;;5103361;27;20042;-44
2021/06/10 07:55:08;;;;;;;11.18;5.90;;;;;;;;;;5101964;27;20026;-43
2021/06/10 07:57:35;;;;;;;4.65;2.65;;;;;;;;;;5101399;28;20023;-44
2021/06/10 08:00:00;;;;;;;3.20;2.40;;;;;;;;;;5101447;28;20499;-45
2021/06/10 08:02:26;;;;;;;4.60;2.05;;;;;;;;;;5102976;28;20093;-46
2021/06/10 08:04:52;;;;;;;3.15;2.13;;;;;;;;;;5106842;28;20063;-43
2021/06/10 08:07:18;;;;;;;2.63;1.45;;;;;;;;;;5107028;28;20512;-45
2021/06/10 08:09:44;;;;;;;3.60;1.40;;;;;;;;;;5097221;28;20043;-43
2021/06/10 08:12:09;;;;;;;2.65;1.20;;;;;;;;;;5100884;28;20444;-45
2021/06/10 08:14:35;;;;;;;2.10;1.02;;;;;;;;;;5095270;28;20024;-45
2021/06/10 08:17:00;;;;;;;5.93;2.92;;;;;;;;;;5096392;27;20048;-45
2021/06/10 08:19:25;;;;;;;12.57;1.98;;;;;;;;;;5099876;28;20016;-43
2021/06/10 08:21:51;;;;;;;6.22;3.80;;;;;;;;;;5099851;28;20019;-48
2021/06/10 08:24:16;;;;;;;9.40;5.43;;;;;;;;;;5101669;28;20027;-44
2021/06/10 08:26:44;;;;;;;11.52;6.75;;;;;;;;;;5104086;28;20092;-43
2021/06/10 08:29:10;;;;;;;9.32;4.32;;;;;;;;;;5097444;28;20026;-47
2021/06/10 08:31:36;;;;;;;11.63;5.90;;;;;;;;;;5096796;28;20642;-46
2021/06/10 08:34:01;;;;;;;5.82;4.43;;;;;;;;;;5098106;28;20020;-44
2021/06/10 08:36:27;;;;;;;5.70;3.88;;;;;;;;;;5105517;28;20540;-45
2021/06/10 08:38:52;;;;;;;12.70;9.07;;;;;;;;;;5099216;28;20497;-44
2021/06/10 08:41:17;;;;;;;13.35;9.23;;;;;;;;;;5103141;28;20023;-43
2021/06/10 08:43:43;;;;;;;8.75;6.05;;;;;;;;;;5108009;27;20089;-45
2021/06/10 08:46:09;;;;;;;8.82;3.65;;;;;;;;;;5104944;27;20030;-45
2021/06/10 08:48:35;;;;;;;7.70;2.70;;;;;;;;;;5107074;27;20020;-45
2021/06/10 08:51:00;;;;;;;5.38;3.35;;;;;;;;;;5100487;27;20104;-42
2021/06/10 08:53:26;;;;;;;5.75;2.35;;;;;;;;;;5106472;27;20018;-45
2021/06/10 08:55:54;;;;;;;8.27;2.58;;;;;;;;;;5100430;27;20015;-48
2021/06/10 08:58:20;;;;;;;6.75;2.42;;;;;;;;;;5102927;27;20021;-42
2021/06/10 09:00:45;;;;;;;8.55;1.65;;;;;;;;;;5111908;27;20026;-46
2021/06/10 09:03:10;;;;;;;5.97;3.67;;;;;;;;;;5109486;27;20024;-44
2021/06/10 09:05:36;;;;;;;3.72;1.42;;;;;;;;;;5105481;27;20051;-45
2021/06/10 09:08:02;;;;;;;1.23;0.77;;;;;;;;;;5107067;27;20023;-46
2021/06/10 09:10:31;;;;;;;3.78;1.75;;;;;;;;;;5104485;27;20081;-43
2021/06/10 09:12:58;;;;;;;4.43;3.60;;;;;;;;;;5110487;27;20479;-42
2021/06/10 09:15:25;;;;;;;6.60;1.50;;;;;;;;;;5116512;27;20458;-42
2021/06/10 09:17:51;;;;;;;2.47;1.33;;;;;;;;;;5103690;27;20036;-42
2021/06/10 09:20:20;;;;;;;4.55;1.83;;;;;;;;;;5106228;27;20062;-45
2021/06/10 09:22:46;;;;;;;4.55;2.55;;;;;;;;;;5102386;27;20055;-43
2021/06/10 09:25:14;;;;;;;5.32;2.17;;;;;;;;;;5099172;27;20549;-44
2021/06/10 09:28:12;;;;;;;2.70;1.65;;;;;;;;;;5102194;27;20035;-45
2021/06/10 09:30:50;;;;;;;4.15;2.50;;;;;;;;;;5084584;27;20115;-45
2021/06/10 09:33:18;;;;;;;4.22;2.03;;;;;;;;;;5103644;27;20012;-42
2021/06/10 09:35:44;;;;;;;12.77;3.78;;;;;;;;;;5109036;27;20024;-43
2021/06/10 09:38:10;;;;;;;2.17;1.17;;;;;;;;;;5103692;27;20035;-43
2021/06/10 09:40:36;;;;;;;5.68;1.85;;;;;;;;;;5098198;28;20012;-43
2021/06/10 09:43:02;;;;;;;1.98;1.40;;;;;;;;;;5103513;27;20038;-46
2021/06/10 09:45:29;;;;;;;3.35;1.63;;;;;;;;;;5104338;27;20132;-42
2021/06/10 09:47:59;;;;;;;2.95;1.38;;;;;;;;;;5098361;27;20106;-42
2021/06/10 09:50:26;;;;;;;7.10;1.08;;;;;;;;;;5104899;27;20076;-42
2021/06/10 09:53:04;;;;;;;1.73;1.20;;;;;;;;;;5104686;27;20080;-43
2021/06/10 09:55:39;;;;;;;2.90;1.83;;;;;;;;;;5098728;27;20030;-43
2021/06/10 09:58:25;;;;;;;1.70;0.90;;;;;;;;;;5097181;27;20020;-46
2021/06/10 10:00:51;;;;;;;1.80;1.08;;;;;;;;;;5107902;27;20042;-42
2021/06/10 10:03:45;;;;;;;3.70;1.98;;;;;;;;;;5099665;27;20064;-43
2021/06/10 10:06:25;;;;;;;2.17;1.27;;;;;;;;;;5104552;27;20127;-43
2021/06/10 10:09:04;;;;;;;2.50;1.67;;;;;;;;;;5100792;27;20064;-42
2021/06/10 10:11:32;;;;;;;2.30;1.45;;;;;;;;;;5105569;27;20074;-43
2021/06/10 10:13:58;;;;;;;2.80;2.08;;;;;;;;;;5102739;27;20026;-42
2021/06/10 10:16:28;;;;;;;2.92;2.05;;;;;;;;;;5104164;27;20489;-43
2021/06/10 10:18:54;;;;;;;2.27;0.93;;;;;;;;;;5102777;27;20047;-42
2021/06/10 10:21:26;;;;;;;6.30;2.70;;;;;;;;;;5102274;27;20548;-43
2021/06/10 10:23:55;;;;;;;3.80;1.80;;;;;;;;;;5108235;27;20479;-41
2021/06/10 10:26:21;;;;;;;2.08;1.48;;;;;;;;;;5104285;27;20102;-42
2021/06/10 10:28:46;;;;;;;2.50;2.03;;;;;;;;;;5108191;27;20456;-43
2021/06/10 10:31:12;;;;;;;2.33;1.67;;;;;;;;;;5102766;27;20019;-42
2021/06/10 10:33:44;;;;;;;2.17;0.95;;;;;;;;;;5106038;27;20518;-45
2021/06/10 10:36:20;;;;;;;1.08;0.75;;;;;;;;;;5107147;27;20020;-46
2021/06/10 10:38:55;;;;;;;2.22;1.45;;;;;;;;;;5100927;27;20016;-42
2021/06/10 10:41:21;;;;;;;4.05;2.67;;;;;;;;;;5101533;27;20027;-49
2021/06/10 10:43:47;;;;;;;1.77;1.38;;;;;;;;;;5107682;27;20028;-48
2021/06/10 10:46:15;;;;;;;1.58;1.20;;;;;;;;;;5103610;28;20535;-50
2021/06/10 10:48:45;;;;;;;5.50;1.60;;;;;;;;;;5104354;27;20107;-49
2021/06/10 10:51:33;;;;;;;3.10;1.65;;;;;;;;;;5102979;27;20483;-47
2021/06/10 10:54:00;;;;;;;2.35;1.50;;;;;;;;;;5108698;27;20111;-46
2021/06/10 10:56:34;;;;;;;6.00;2.33;;;;;;;;;;5106317;27;20015;-46
2021/06/10 10:59:16;;;;;;;1.17;0.85;;;;;;;;;;5102432;27;20157;-44
2021/06/10 11:01:42;;;;;;;4.30;1.70;;;;;;;;;;5101296;27;20093;-45
2021/06/10 11:04:08;;;;;;;1.70;1.50;;;;;;;;;;5102772;27;20062;-43
2021/06/10 11:06:34;;;;;;;0.90;0.70;;;;;;;;;;5100755;27;20086;-43
2021/06/10 11:09:12;;;;;;;1.08;0.80;;;;;;;;;;5103539;27;20528;-43
2021/06/10 11:11:52;;;;;;;2.03;1.80;;;;;;;;;;5100097;28;20028;-45
2021/06/10 11:14:36;;;;;;;1.65;0.70;;;;;;;;;;5098207;28;20076;-45
2021/06/10 11:17:32;;;;;;;6.00;1.33;;;;;;;;;;5096327;27;20030;-43
2021/06/10 11:20:02;;;;;;;3.33;1.15;;;;;;;;;;5090417;27;20042;-44
2021/06/10 11:22:51;;;;;;;1.67;0.93;;;;;;;;;;5104414;27;20066;-46
2021/06/10 11:25:25;;;;;;;4.07;2.58;;;;;;;;;;5104334;27;20028;-44
2021/06/10 11:27:51;;;;;;;2.58;1.25;;;;;;;;;;5106895;27;20027;-43
2021/06/10 11:30:29;;;;;;;1.90;1.20;;;;;;;;;;5106475;27;20047;-43
2021/06/10 11:32:56;;;;;;;6.95;0.90;;;;;;;;;;5098850;28;20099;-42
2021/06/10 11:35:28;;;;;;;3.47;0.77;;;;;;;;;;5102582;27;20015;-46
2021/06/10 11:37:58;;;;;;;1.70;1.08;;;;;;;;;;5098924;27;20016;-47
2021/06/10 11:40:23;;;;;;;2.90;0.98;;;;;;;;;;5103278;27;20026;-46
2021/06/10 11:42:49;;;;;;;3.22;1.63;;;;;;;;;;5103337;27;20103;-49
2021/06/10 11:45:15;;;;;;;2.90;0.85;;;;;;;;;;5109373;27;20047;-48
2021/06/10 11:47:42;;;;;;;5.88;0.93;;;;;;;;;;5107763;27;20503;-48
2021/06/10 11:50:27;;;;;;;4.38;1.52;;;;;;;;;;5106063;27;20024;-47
2021/06/10 11:52:53;;;;;;;1.55;0.70;;;;;;;;;;5098905;28;20031;-46
2021/06/10 11:55:19;;;;;;;1.40;0.82;;;;;;;;;;5101329;27;20297;-47
2021/06/10 11:57:51;;;;;;;1.85;1.20;;;;;;;;;;5103720;27;20481;-47
2021/06/10 12:00:24;;;;;;;2.03;1.20;;;;;;;;;;5101137;28;20020;-47
2021/06/10 12:02:53;;;;;;;3.25;1.42;;;;;;;;;;5107336;27;20024;-46
2021/06/10 12:05:20;;;;;;;2.10;1.33;;;;;;;;;;5099718;27;20044;-48
2021/06/10 12:07:45;;;;;;;1.95;0.88;;;;;;;;;;5097832;28;20023;-49
2021/06/10 12:10:15;;;;;;;2.30;1.40;;;;;;;;;;5104848;28;20426;-42
2021/06/10 12:12:45;;;;;;;2.23;1.10;;;;;;;;;;5114603;28;20016;-44
2021/06/10 12:15:30;;;;;;;1.75;1.10;;;;;;;;;;5106897;28;20228;-46
2021/06/10 12:17:59;;;;;;;2.55;0.85;;;;;;;;;;5105022;28;20027;-45
2021/06/10 12:20:32;;;;;;;0.80;0.70;;;;;;;;;;5108219;27;20486;-47
2021/06/10 12:22:59;;;;;;;1.65;0.95;;;;;;;;;;5106613;27;20018;-43
2021/06/10 12:25:26;;;;;;;3.17;1.75;;;;;;;;;;5107404;27;20016;-45
2021/06/10 12:27:55;;;;;;;4.35;1.05;;;;;;;;;;5099894;27;20027;-45
2021/06/10 12:30:21;;;;;;;1.30;0.60;;;;;;;;;;5102073;27;20058;-43
2021/06/10 12:32:47;;;;;;;9.45;0.80;;;;;;;;;;5105003;27;20015;-44
2021/06/10 12:35:12;;;;;;;6.70;1.50;;;;;;;;;;5105843;27;20711;-44
2021/06/10 12:37:37;;;;;;;2.15;1.00;;;;;;;;;;5105318;27;20434;-46
2021/06/10 12:40:03;;;;;;;2.03;1.58;;;;;;;;;;5104652;27;20479;-44
2021/06/10 12:42:28;;;;;;;4.13;1.52;;;;;;;;;;5105237;27;20739;-43
2021/06/10 12:44:54;;;;;;;8.73;2.58;;;;;;;;;;5110522;27;20018;-48
2021/06/10 12:47:32;;;;;;;2.13;0.98;;;;;;;;;;5108062;27;20756;-45
2021/06/10 12:49:57;;;;;;;8.20;1.83;;;;;;;;;;5109234;27;20491;-46
2021/06/10 12:52:25;;;;;;;2.13;1.10;;;;;;;;;;5098353;27;20034;-44
2021/06/10 12:54:56;;;;;;;8.80;1.52;;;;;;;;;;5103689;27;20513;-45
2021/06/10 12:57:23;;;;;;;5.07;1.25;;;;;;;;;;5102473;27;20059;-48
2021/06/10 12:59:53;;;;;;;1.45;0.90;;;;;;;;;;5100971;27;20060;-44
2021/06/10 13:02:19;;;;;;;3.93;0.90;;;;;;;;;;5097935;28;20028;-43
2021/06/10 13:04:44;;;;;;;2.97;0.90;;;;;;;;;;5098544;27;20131;-45
2021/06/10 13:07:11;;;;;;;2.40;1.40;;;;;;;;;;5099817;27;20465;-46
2021/06/10 13:09:42;;;;;;;1.17;1.08;;;;;;;;;;5104017;27;20016;-46
2021/06/10 13:12:14;;;;;;;1.88;1.25;;;;;;;;;;5102935;27;20487;-42
2021/06/10 13:14:39;;;;;;;1.70;1.10;;;;;;;;;;5103013;27;20034;-44
2021/06/10 13:17:05;;;;;;;2.15;0.93;;;;;;;;;;5100605;27;20007;-47
2021/06/10 13:19:30;;;;;;;1.33;0.93;;;;;;;;;;5104514;27;20019;-43
2021/06/10 13:22:25;;;;;;;1.42;0.90;;;;;;;;;;5107498;27;20019;-42
2021/06/10 13:24:50;;;;;;;1.98;1.73;;;;;;;;;;5091641;27;20352;-42
2021/06/10 13:27:15;;;;;;;3.03;0.95;;;;;;;;;;5100177;27;20486;-42
2021/06/10 13:29:51;;;;;;;10.73;9.73;;;;;;;;;;5095385;27;20021;-44
2021/06/10 13:32:27;;;;;;;9.27;1.63;;;;;;;;;;5106202;27;20027;-41
2021/06/10 13:37:31;;;;;;;5.80;4.45;;;;;;;;;;5103355;27;20027;-40
2021/06/10 13:39:56;;;;;;;5.40;3.65;;;;;;;;;;5099632;27;20024;-42
2021/06/10 13:42:22;;;;;;;1.98;1.45;;;;;;;;;;5097575;27;20019;-42
2021/06/10 13:44:47;;;;;;;1.95;1.45;;;;;;;;;;5104356;27;20028;-41
2021/06/10 13:47:13;;;;;;;2.05;1.65;;;;;;;;;;5101149;27;20472;-43
2021/06/10 13:49:38;;;;;;;0.80;0.50;;;;;;;;;;5094721;27;20028;-46
2021/06/10 13:52:04;;;;;;;1.00;0.60;;;;;;;;;;5106256;27;20020;-42
2021/06/10 13:54:29;;;;;;;7.43;6.72;;;;;;;;;;5100366;27;20077;-41
2021/06/10 13:56:55;;;;;;;1.30;0.82;;;;;;;;;;5098823;27;20455;-43
2021/06/10 13:59:20;;;;;;;1.92;1.08;;;;;;;;;;5106745;27;20016;-45
2021/06/10 14:01:45;;;;;;;3.35;2.00;;;;;;;;;;5102582;27;20023;-47
2021/06/10 14:04:11;;;;;;;1.77;1.10;;;;;;;;;;5099387;27;20053;-42
2021/06/10 14:06:36;;;;;;;3.15;1.40;;;;;;;;;;5099296;27;20081;-44
2021/06/10 14:09:01;;;;;;;1.67;1.25;;;;;;;;;;5099209;27;20424;-44
2021/06/10 14:11:27;;;;;;;2.88;1.05;;;;;;;;;;5101881;27;20035;-46
2021/06/10 14:13:53;;;;;;;1.25;0.90;;;;;;;;;;5103026;27;20024;-45
2021/06/10 14:16:18;;;;;;;1.70;0.75;;;;;;;;;;5099632;27;20579;-45
2021/06/10 14:18:45;;;;;;;1.73;1.00;;;;;;;;;;5102001;27;20023;-48
2021/06/10 14:21:10;;;;;;;1.35;0.80;;;;;;;;;;5102020;27;20024;-48
2021/06/10 14:23:35;;;;;;;3.85;1.58;;;;;;;;;;5099756;27;20479;-50
2021/06/10 14:26:00;;;;;;;1.65;1.00;;;;;;;;;;5103893;27;20043;-47
2021/06/10 14:28:26;;;;;;;1.17;0.90;;;;;;;;;;5105083;27;20030;-49
2021/06/10 14:33:40;;;;;;;7.40;2.67;;;;;;;;;;5062444;27;20031;-43
2021/06/10 14:36:06;;;;;;;2.13;1.45;;;;;;;;;;5095776;27;20023;-45
2021/06/10 14:38:31;;;;;;;1.42;1.15;;;;;;;;;;5099331;27;20023;-44
2021/06/10 14:40:57;;;;;;;1.20;0.65;;;;;;;;;;5101339;27;20023;-48
2021/06/10 14:43:22;;;;;;;1.67;1.48;;;;;;;;;;5103724;27;20115;-45
2021/06/10 14:45:48;;;;;;;1.63;1.00;;;;;;;;;;5103262;27;20015;-46